Air Navigation Services of Czech Republic  
Last data update:  28.06.2022 18:36:33 UTC česká verze
   METEO Page displayed:  28.06.2022 18:37:53 UTC  
vysvětlivky
METAR EDDB 281820Z 06005KT CAVOK 24/11 Q1019 NOSIG=
METAR EDDC 281820Z AUTO 08005KT 050V120 CAVOK 24/12 Q1019 NOSIG=
METAR EDDE 281820Z AUTO 06008KT CAVOK 22/05 Q1019 NOSIG=
METAR EDDF 281820Z 01008KT CAVOK 25/09 Q1016 NOSIG=
METAR EDDM 281820Z AUTO 08006KT CAVOK 19/16 Q1017 NOSIG=
METAR EDDN 281820Z AUTO 09007KT CAVOK 24/13 Q1017 NOSIG=
METAR EDDP 281820Z 08005KT CAVOK 24/10 Q1019 NOSIG=
METAR EDQM 281820Z AUTO 04007KT 350V080 9999 // NCD 21/09 Q1019=
METAR EPBY 281830Z 34007KT 310V010 9999 FEW020 BKN045 20/13 Q1020=
METAR EPGD 281830Z 29013KT 9999 BKN010 18/15 Q1019=
METAR EPKK 281830Z VRB02KT 9999 FEW046 23/18 Q1019=
METAR EPKT 281830Z 31004KT CAVOK 21/18 Q1019=
METAR EPLL 281830Z 31007KT 280V360 CAVOK 22/17 Q1019=
METAR EPPO 281830Z 02004KT 9999 FEW025 21/16 Q1020=
METAR EPRZ 281830Z 32005KT 280V360 CAVOK 24/18 Q1018=
METAR EPWA 281830Z 31006KT 9999 -RA NSC 21/20 Q1017 NOSIG=
METAR EPWR 281830Z 03008KT CAVOK 23/15 Q1019=
METAR LHBP 281830Z 31008KT CAVOK 28/17 Q1017 NOSIG=
METAR LHSM 281815Z AUTO 07003KT CAVOK 27/22 Q1016=
METAR LKBC NIL
METAR LKCS 281830Z AUTO 33004KT 300V360 9999 OVC046/// 22/17 Q1018=
METAR LKCV 281830Z 32006KT CAVOK 24/15 Q1019 NOSIG RMK BLU BLU=
METAR LKKB 281830Z VRB02KT CAVOK 23/14 Q1019 NOSIG RMK BLU BLU=
METAR LKKU 281800Z 04008KT CAVOK 26/16 Q1018=
METAR LKKV 281830Z 10006KT CAVOK 20/11 Q1020=
METAR LKLN 281830Z AUTO 10005KT 9999 SCT047 OVC056 23/15 Q1019=
METAR LKMT 281830Z 07006KT CAVOK 22/19 Q1020 NOSIG=
METAR LKNA 281830Z 05005KT 9999 SCT044 BKN090 24/17 Q1019 NOSIG RMK BLU BLU=
METAR LKPD 281830Z 02005KT 330V050 CAVOK 25/16 Q1019 NOSIG RMK BLU BLU=
METAR LKPJ 281830Z AUTO 09007KT 9999 OVC039/// 23/19 Q1019=
METAR LKPR 281830Z 05003KT 020V080 CAVOK 22/13 Q1020 NOSIG=
METAR LKTB 281830Z 07011KT CAVOK 24/18 Q1018 NOSIG=
METAR LKVO NIL
METAR LOWI 281820Z VRB02KT 9999 SHRA FEW012 SCT070 BKN090 18/17 Q1019 TEMPO -SHRA=
METAR LOWL 281820Z AUTO 02013KT 340V040 9999 TSRA FEW004 SCT040CB BKN050 19/18 Q1019 RESHGS TEMPO -SHRA=
METAR LOWS 281820Z 14007KT 9999 FEW007 FEW045CB SCT060 BKN120 18/17 Q1018 TEMPO SHRA=
METAR LOWW 281820Z VRB01KT 9999 FEW050 FEW050CB 28/17 Q1017 NOSIG=
METAR LZIB 281830Z 33004KT CAVOK 27/19 Q1017 NOSIG=
METAR LZKZ 281830Z 01007KT CAVOK 25/16 Q1017 NOSIG=
METAR LZMC NIL
METAR LZPP 281830Z 35007KT CAVOK 27/17 Q1017=
METAR LZSL NIL
METAR LZTT 281830Z VRB02KT 9999 FEW050 20/16 Q1020=
METAR LZZI 281830Z 05003KT 010V070 9999 FEW036 23/17 Q1019=